Time;durP1;ratioP1;P1;durP2;ratioP2;P2;SDS_P1;SDS_P2;PMS_P1;PMS_P2;Temp;Humidity;BMP_temperature;BMP_pressure;BME280_temperature;BME280_humidity;BME280_pressure;Samples;Min_cycle;Max_cycle;Signal;HPM_P1;HPM_P2
2023/09/07 00:02:01;;;;;;;5.60;5.00;;;16.70;1.00;;;;;;5117568;28;20483;-59
2023/09/07 00:04:28;;;;;;;6.87;5.70;;;16.70;1.00;;;;;;5118024;28;20462;-59
2023/09/07 00:06:55;;;;;;;7.73;6.23;;;16.70;1.00;;;;;;5117515;28;20508;-60
2023/09/07 00:09:24;;;;;;;7.10;6.40;;;16.70;99.90;;;;;;5115984;28;20459;-59
2023/09/07 00:11:51;;;;;;;8.60;5.93;;;16.70;99.90;;;;;;5115984;28;20461;-58
2023/09/07 00:14:18;;;;;;;7.00;6.00;;;16.60;99.90;;;;;;5117862;28;20968;-59
2023/09/07 00:16:45;;;;;;;8.90;5.67;;;16.60;99.90;;;;;;5117943;28;20509;-60
2023/09/07 00:19:13;;;;;;;7.80;7.00;;;16.60;99.90;;;;;;5117942;28;20455;-59
2023/09/07 00:21:40;;;;;;;6.40;5.80;;;16.60;1.00;;;;;;5116611;28;20487;-59
2023/09/07 00:24:08;;;;;;;9.30;6.50;;;16.50;1.00;;;;;;5116455;28;20590;-59
2023/09/07 00:26:36;;;;;;;8.40;6.47;;;16.50;99.90;;;;;;5116022;28;20455;-59
2023/09/07 00:29:06;;;;;;;6.77;6.17;;;16.50;99.90;;;;;;5116782;28;20745;-59
2023/09/07 00:31:33;;;;;;;7.00;6.30;;;16.50;99.90;;;;;;5116165;28;20554;-59
2023/09/07 00:34:01;;;;;;;7.70;6.27;;;16.50;99.90;;;;;;5116131;28;20455;-59
2023/09/07 00:36:28;;;;;;;6.93;6.23;;;16.50;99.90;;;;;;5116688;28;20463;-59
2023/09/07 00:38:55;;;;;;;8.47;6.10;;;16.50;99.90;;;;;;5117149;28;20539;-59
2023/09/07 00:41:23;;;;;;;6.10;5.50;;;16.40;1.00;;;;;;5117161;28;20786;-60
2023/09/07 00:43:52;;;;;;;6.73;5.90;;;16.40;1.00;;;;;;5118000;28;20462;-59
2023/09/07 00:46:20;;;;;;;9.17;5.57;;;16.30;99.90;;;;;;5117578;28;20455;-59
2023/09/07 00:48:47;;;;;;;9.10;6.40;;;16.30;99.90;;;;;;5117883;28;20562;-60
2023/09/07 00:51:14;;;;;;;7.30;5.70;;;16.20;99.90;;;;;;5117502;28;20542;-59
2023/09/07 00:53:43;;;;;;;6.60;5.97;;;16.20;99.90;;;;;;5117664;28;20481;-60
2023/09/07 00:56:10;;;;;;;6.90;5.70;;;16.20;99.90;;;;;;5117560;28;20554;-60
2023/09/07 00:58:38;;;;;;;5.60;5.10;;;16.20;99.90;;;;;;5117643;28;20553;-59
2023/09/07 01:01:07;;;;;;;6.17;5.57;;;16.10;99.90;;;;;;5117427;28;20913;-59
2023/09/07 01:03:34;;;;;;;6.00;5.40;;;16.20;99.90;;;;;;5116996;28;20463;-60
2023/09/07 01:06:08;;;;;;;11.33;6.47;;;16.20;99.90;;;;;;5117684;28;20478;-59
2023/09/07 01:08:41;;;;;;;7.17;6.20;;;16.10;99.90;;;;;;5117466;28;20490;-60
2023/09/07 01:11:14;;;;;;;7.10;5.90;;;16.10;99.90;;;;;;5121570;28;20481;-60
2023/09/07 01:13:42;;;;;;;6.20;5.43;;;16.10;99.90;;;;;;5121122;28;20455;-59
2023/09/07 01:16:11;;;;;;;6.80;5.80;;;16.10;99.90;;;;;;5119833;28;20434;-59
2023/09/07 01:18:39;;;;;;;7.77;6.23;;;16.00;99.90;;;;;;5121237;28;20482;-60
2023/09/07 01:21:08;;;;;;;7.53;6.30;;;16.00;99.90;;;;;;5121028;28;20546;-60
2023/09/07 01:23:37;;;;;;;7.03;6.33;;;16.00;99.90;;;;;;5121465;28;20481;-59
2023/09/07 01:26:05;;;;;;;6.97;6.37;;;15.90;99.90;;;;;;5121131;28;20554;-60
2023/09/07 01:28:32;;;;;;;6.40;5.60;;;15.80;99.90;;;;;;5120934;28;20455;-59
2023/09/07 01:30:59;;;;;;;10.10;5.97;;;15.80;1.00;;;;;;5120958;28;20459;-60
2023/09/07 01:33:26;;;;;;;6.70;6.00;;;15.80;1.00;;;;;;5120928;28;20533;-60
2023/09/07 01:35:54;;;;;;;6.43;5.90;;;15.80;99.90;;;;;;5120555;28;20657;-59
2023/09/07 01:38:21;;;;;;;9.80;5.63;;;15.70;99.90;;;;;;5120519;28;20569;-59
2023/09/07 01:40:49;;;;;;;9.70;5.57;;;15.70;1.00;;;;;;5121045;28;20481;-60
2023/09/07 01:43:17;;;;;;;7.70;5.50;;;15.60;1.00;;;;;;5120715;28;20466;-60
2023/09/07 01:45:44;;;;;;;6.70;6.00;;;15.60;1.00;;;;;;5120359;28;20863;-59
2023/09/07 01:48:13;;;;;;;9.73;6.10;;;15.60;1.00;;;;;;5120445;28;20462;-60
2023/09/07 01:50:40;;;;;;;7.37;5.23;;;15.60;1.00;;;;;;5120726;28;20452;-60
2023/09/07 01:53:07;;;;;;;7.10;5.60;;;15.60;99.90;;;;;;5120627;28;20426;-60
2023/09/07 01:55:34;;;;;;;8.53;5.33;;;15.60;99.90;;;;;;5120175;28;20512;-59
2023/09/07 01:58:03;;;;;;;6.23;5.30;;;15.60;99.90;;;;;;5120192;28;20470;-60
2023/09/07 02:00:30;;;;;;;6.40;5.80;;;15.50;99.90;;;;;;5120843;28;20455;-60
2023/09/07 02:02:58;;;;;;;7.30;5.87;;;15.50;99.90;;;;;;5119957;28;20527;-60
2023/09/07 02:05:25;;;;;;;6.10;5.50;;;15.40;99.90;;;;;;5120314;28;20485;-60
2023/09/07 02:07:52;;;;;;;5.97;5.37;;;15.40;1.00;;;;;;5120128;28;20831;-59
2023/09/07 02:10:19;;;;;;;5.97;5.47;;;15.30;1.00;;;;;;5120014;28;20477;-60
2023/09/07 02:12:47;;;;;;;7.17;5.93;;;15.20;1.00;;;;;;5120283;28;20462;-60
2023/09/07 02:15:15;;;;;;;6.97;6.37;;;15.20;1.00;;;;;;5119506;28;20889;-60
2023/09/07 02:17:44;;;;;;;6.83;5.80;;;15.10;1.00;;;;;;5119332;28;20953;-60
2023/09/07 02:20:12;;;;;;;8.30;5.37;;;15.00;1.00;;;;;;5119817;28;20558;-61
2023/09/07 02:22:39;;;;;;;8.57;6.30;;;15.10;1.00;;;;;;5119647;28;20534;-60
2023/09/07 02:25:07;;;;;;;6.87;5.40;;;15.10;1.00;;;;;;5120190;28;20751;-60
2023/09/07 02:28:14;;;;;;;7.00;5.43;;;15.10;1.00;;;;;;5119687;28;20888;-60
2023/09/07 02:30:43;;;;;;;7.60;5.70;;;15.10;99.90;;;;;;5119842;28;20463;-60
2023/09/07 02:33:10;;;;;;;7.80;6.17;;;15.10;1.00;;;;;;5120046;28;20546;-60
2023/09/07 02:35:38;;;;;;;6.60;5.87;;;15.10;1.00;;;;;;5119710;28;20466;-60
2023/09/07 02:38:06;;;;;;;7.43;6.30;;;15.00;1.00;;;;;;5119259;28;20466;-60
2023/09/07 02:40:33;;;;;;;7.17;6.00;;;14.90;1.00;;;;;;5119571;28;20477;-60
2023/09/07 02:43:00;;;;;;;7.83;6.10;;;15.00;1.00;;;;;;5119592;28;20488;-60
2023/09/07 02:45:27;;;;;;;8.83;5.93;;;14.90;1.00;;;;;;5119136;28;20461;-60
2023/09/07 02:47:56;;;;;;;8.63;6.60;;;15.00;1.00;;;;;;5119578;28;20460;-60
2023/09/07 02:50:23;;;;;;;6.90;6.13;;;15.00;1.00;;;;;;5119580;28;20756;-60
2023/09/07 02:52:50;;;;;;;6.67;6.07;;;15.10;1.00;;;;;;5119614;28;20451;-60
2023/09/07 02:55:18;;;;;;;6.70;5.97;;;15.10;1.00;;;;;;5119015;28;20744;-60
2023/09/07 02:57:45;;;;;;;7.37;5.87;;;15.00;1.00;;;;;;5118840;28;20459;-60
2023/09/07 03:00:13;;;;;;;6.70;5.70;;;14.80;1.00;;;;;;5119060;28;20904;-60
2023/09/07 03:02:41;;;;;;;8.47;6.30;;;14.60;1.00;;;;;;5119321;28;20541;-60
2023/09/07 03:05:10;;;;;;;6.60;6.00;;;14.60;1.00;;;;;;5119023;28;20560;-60
2023/09/07 03:07:39;;;;;;;6.90;6.13;;;14.70;1.00;;;;;;5119260;28;20459;-60
2023/09/07 03:10:07;;;;;;;8.90;6.77;;;14.80;1.00;;;;;;5118775;28;20460;-60
2023/09/07 03:12:35;;;;;;;7.80;6.30;;;14.90;1.00;;;;;;5118991;28;20452;-60
2023/09/07 03:15:03;;;;;;;7.90;6.30;;;14.80;1.00;;;;;;5118949;28;20480;-60
2023/09/07 03:17:31;;;;;;;5.90;5.40;;;14.70;1.00;;;;;;5119110;28;20459;-60
2023/09/07 03:19:58;;;;;;;8.13;6.10;;;14.60;1.00;;;;;;5117631;28;20550;-60
2023/09/07 03:22:28;;;;;;;7.10;6.40;;;14.60;1.00;;;;;;5118282;28;20518;-60
2023/09/07 03:24:55;;;;;;;7.87;7.07;;;14.50;1.00;;;;;;5118222;28;20463;-60
2023/09/07 03:27:22;;;;;;;10.80;7.17;;;14.50;1.00;;;;;;5118612;28;20945;-60
2023/09/07 03:29:52;;;;;;;7.80;6.17;;;14.50;1.00;;;;;;5118508;28;20955;-60
2023/09/07 03:32:19;;;;;;;8.90;6.20;;;14.50;1.00;;;;;;5118016;28;20451;-60
2023/09/07 03:34:46;;;;;;;7.40;6.50;;;14.40;1.00;;;;;;5118278;28;20777;-60
2023/09/07 03:37:13;;;;;;;6.83;6.10;;;14.50;1.00;;;;;;5118235;28;20542;-60
2023/09/07 03:39:42;;;;;;;8.20;6.10;;;14.50;1.00;;;;;;5118019;28;20937;-60
2023/09/07 03:42:09;;;;;;;8.03;6.13;;;14.50;1.00;;;;;;5118014;28;20472;-60
2023/09/07 03:44:36;;;;;;;6.77;5.83;;;14.50;1.00;;;;;;5118562;28;20882;-60
2023/09/07 03:47:04;;;;;;;7.87;5.90;;;14.50;1.00;;;;;;5118225;28;20550;-60
2023/09/07 03:49:31;;;;;;;6.70;6.10;;;14.30;1.00;;;;;;5118352;28;20462;-60
2023/09/07 03:51:58;;;;;;;8.30;6.20;;;14.30;1.00;;;;;;5117885;28;20554;-60
2023/09/07 03:54:25;;;;;;;7.00;6.30;;;14.20;1.00;;;;;;5118077;28;20492;-60
2023/09/07 03:56:54;;;;;;;9.93;6.63;;;14.30;1.00;;;;;;5117108;28;20455;-60
2023/09/07 03:59:22;;;;;;;8.77;7.00;;;14.20;1.00;;;;;;5117997;28;20455;-60
2023/09/07 04:01:49;;;;;;;8.53;6.80;;;14.20;1.00;;;;;;5117984;28;20564;-60
2023/09/07 04:04:19;;;;;;;8.80;6.00;;;14.20;1.00;;;;;;5118045;28;20455;-60
2023/09/07 04:06:48;;;;;;;9.90;6.97;;;14.10;1.00;;;;;;5118087;28;20521;-60
2023/09/07 04:09:16;;;;;;;7.70;6.40;;;14.10;1.00;;;;;;5117892;28;20519;-60
2023/09/07 04:11:43;;;;;;;6.60;5.57;;;14.10;1.00;;;;;;5117421;28;20575;-60
2023/09/07 04:14:12;;;;;;;6.83;6.13;;;14.10;1.00;;;;;;5117512;28;20455;-60
2023/09/07 04:16:39;;;;;;;7.60;5.63;;;14.10;1.00;;;;;;5118483;28;20455;-60
2023/09/07 04:19:07;;;;;;;7.33;6.53;;;14.10;1.00;;;;;;5118398;28;20455;-60
2023/09/07 04:21:35;;;;;;;8.20;6.60;;;14.10;1.00;;;;;;5117795;28;20459;-60
2023/09/07 04:24:03;;;;;;;8.80;7.03;;;14.10;1.00;;;;;;5117510;28;20491;-60
2023/09/07 04:26:30;;;;;;;8.60;6.83;;;14.10;1.00;;;;;;5116845;28;20593;-61
2023/09/07 04:28:57;;;;;;;8.87;7.17;;;14.10;1.00;;;;;;5116544;28;20538;-60
2023/09/07 04:31:27;;;;;;;9.80;6.30;;;14.10;1.00;;;;;;5116327;28;20487;-60
2023/09/07 04:33:54;;;;;;;7.70;6.23;;;14.10;1.00;;;;;;5116616;28;20455;-60
2023/09/07 04:36:22;;;;;;;10.30;6.23;;;14.10;1.00;;;;;;5116392;28;20451;-60
2023/09/07 04:38:49;;;;;;;7.80;6.27;;;14.00;1.00;;;;;;5116005;28;20515;-60
2023/09/07 04:41:17;;;;;;;9.07;6.27;;;14.00;1.00;;;;;;5116751;28;20437;-60
2023/09/07 04:43:44;;;;;;;6.73;5.70;;;14.00;1.00;;;;;;5117537;28;20575;-60
2023/09/07 04:46:12;;;;;;;6.93;6.23;;;14.00;1.00;;;;;;5121457;28;20430;-60
2023/09/07 04:48:41;;;;;;;6.77;6.10;;;14.00;1.00;;;;;;5121830;28;20455;-60
2023/09/07 04:51:10;;;;;;;7.13;5.70;;;14.10;1.00;;;;;;5121928;28;20455;-60
2023/09/07 04:53:38;;;;;;;6.70;5.93;;;14.00;1.00;;;;;;5121555;28;20516;-60
2023/09/07 04:56:07;;;;;;;7.23;5.63;;;14.00;1.00;;;;;;5120874;28;20546;-60
2023/09/07 04:58:36;;;;;;;8.57;7.03;;;14.10;1.00;;;;;;5121389;28;20464;-60
2023/09/07 05:01:04;;;;;;;10.93;6.77;;;14.10;1.00;;;;;;5121376;28;20435;-60
2023/09/07 05:03:32;;;;;;;7.37;5.90;;;14.10;1.00;;;;;;5121206;28;20487;-61
2023/09/07 05:06:02;;;;;;;7.97;6.43;;;14.10;1.00;;;;;;5121030;28;20550;-61
2023/09/07 05:08:30;;;;;;;7.63;6.93;;;14.10;1.00;;;;;;5121156;28;20430;-60
2023/09/07 05:10:58;;;;;;;9.70;6.27;;;14.10;1.00;;;;;;5121247;28;20460;-61
2023/09/07 05:13:26;;;;;;;8.87;6.77;;;14.10;1.00;;;;;;5121468;28;20444;-61
2023/09/07 05:15:56;;;;;;;8.10;6.53;;;14.10;1.00;;;;;;5120219;28;20807;-61
2023/09/07 05:18:24;;;;;;;7.53;6.43;;;14.10;1.00;;;;;;5121417;28;20833;-61
2023/09/07 05:20:51;;;;;;;8.37;7.03;;;14.10;1.00;;;;;;5121434;28;20455;-61
2023/09/07 05:23:20;;;;;;;10.00;7.17;;;14.20;1.00;;;;;;5121043;28;20560;-61
2023/09/07 05:25:50;;;;;;;10.17;6.63;;;14.20;1.00;;;;;;5120972;28;20941;-60
2023/09/07 05:28:17;;;;;;;7.17;6.47;;;14.20;1.00;;;;;;5121022;28;20545;-61
2023/09/07 05:30:45;;;;;;;9.87;6.90;;;14.20;1.00;;;;;;5121584;28;20736;-61
2023/09/07 05:33:13;;;;;;;8.70;6.60;;;14.20;1.00;;;;;;5121061;28;20738;-61
2023/09/07 05:35:41;;;;;;;10.87;8.20;;;14.30;1.00;;;;;;5120743;28;20455;-61
2023/09/07 05:38:10;;;;;;;8.23;7.20;;;14.40;1.00;;;;;;5119191;28;20480;-61
2023/09/07 05:40:39;;;;;;;8.30;6.97;;;14.50;1.00;;;;;;5120345;28;20461;-61
2023/09/07 05:43:07;;;;;;;9.53;7.03;;;14.60;1.00;;;;;;5120170;28;20559;-61
2023/09/07 05:45:37;;;;;;;8.97;8.13;;;14.60;1.00;;;;;;5120404;28;20763;-60
2023/09/07 05:48:05;;;;;;;8.10;7.27;;;14.70;1.00;;;;;;5120798;28;20455;-61
2023/09/07 05:50:34;;;;;;;8.40;7.50;;;14.70;1.00;;;;;;5120556;28;20460;-61
2023/09/07 05:53:02;;;;;;;8.40;7.13;;;14.80;1.00;;;;;;5120842;28;20448;-61
2023/09/07 05:55:29;;;;;;;7.83;6.97;;;14.90;1.00;;;;;;5119325;28;20463;-61
2023/09/07 05:57:59;;;;;;;8.07;7.23;;;15.00;1.00;;;;;;5119553;28;20463;-61
2023/09/07 06:00:27;;;;;;;11.03;7.10;;;15.10;1.00;;;;;;5120175;28;20460;-61
2023/09/07 06:02:54;;;;;;;8.07;7.17;;;15.10;1.00;;;;;;5119407;28;20491;-61
2023/09/07 06:05:22;;;;;;;8.03;6.77;;;15.30;1.00;;;;;;5120116;28;20466;-61
2023/09/07 06:07:49;;;;;;;7.63;6.80;;;15.50;1.00;;;;;;5120171;28;20561;-61
2023/09/07 06:10:19;;;;;;;9.53;7.00;;;15.60;1.00;;;;;;5120517;28;20455;-61
2023/09/07 06:12:46;;;;;;;8.97;7.40;;;15.80;1.00;;;;;;5120673;28;20788;-61
2023/09/07 06:15:16;;;;;;;9.93;6.97;;;15.90;1.00;;;;;;5119612;28;20459;-60
2023/09/07 06:17:44;;;;;;;10.53;7.53;;;15.90;99.90;;;;;;5119767;28;20908;-61
2023/09/07 06:20:11;;;;;;;9.93;6.60;;;16.10;1.00;;;;;;5119315;28;20742;-61
2023/09/07 06:22:40;;;;;;;9.10;7.07;;;16.20;1.00;;;;;;5119780;28;20517;-61
2023/09/07 06:25:07;;;;;;;9.23;7.77;;;16.40;1.00;;;;;;5120448;28;20459;-62
2023/09/07 06:27:35;;;;;;;7.67;6.30;;;16.60;1.00;;;;;;5119793;28;20946;-62
2023/09/07 06:30:02;;;;;;;8.10;7.00;;;16.70;99.90;;;;;;5116314;28;20499;-61
2023/09/07 06:32:32;;;;;;;7.90;6.47;;;16.90;99.90;;;;;;5118793;28;20507;-62
2023/09/07 06:35:00;;;;;;;7.27;6.57;;;17.10;99.90;;;;;;5118906;28;20456;-62
2023/09/07 06:37:27;;;;;;;7.33;6.20;;;17.30;99.90;;;;;;5118728;28;20524;-62
2023/09/07 06:39:54;;;;;;;9.13;7.00;;;17.50;99.90;;;;;;5118364;28;20526;-62
2023/09/07 06:42:22;;;;;;;8.73;6.70;;;17.70;99.90;;;;;;5119139;28;20481;-62
2023/09/07 06:44:50;;;;;;;7.10;6.23;;;17.90;99.90;;;;;;5118507;28;20514;-62
2023/09/07 06:47:17;;;;;;;6.90;6.20;;;18.20;99.90;;;;;;5119007;28;20468;-62
2023/09/07 06:49:46;;;;;;;12.60;6.93;;;18.40;99.90;;;;;;5119168;28;20456;-62
2023/09/07 06:52:15;;;;;;;7.13;6.47;;;18.60;99.90;;;;;;5119689;28;20759;-62
2023/09/07 06:54:42;;;;;;;8.00;6.60;;;18.80;34.00;;;;;;5119854;28;20876;-63
2023/09/07 06:57:10;;;;;;;10.47;7.13;;;19.00;54.90;;;;;;5119526;28;20879;-63
2023/09/07 06:59:37;;;;;;;8.23;6.77;;;19.20;1.00;;;;;;5120017;28;20541;-63
2023/09/07 07:02:04;;;;;;;9.03;7.00;;;19.40;1.00;;;;;;5119631;28;20816;-63
2023/09/07 07:04:32;;;;;;;8.47;7.10;;;19.60;1.00;;;;;;5118709;28;20462;-63
2023/09/07 07:07:03;;;;;;;8.67;6.30;;;19.80;1.00;;;;;;5117589;28;20926;-63
2023/09/07 07:09:31;;;;;;;7.97;6.30;;;20.10;1.00;;;;;;5117914;28;20456;-63
2023/09/07 07:12:00;;;;;;;7.57;6.87;;;20.40;1.00;;;;;;5110164;28;20472;-62
2023/09/07 07:14:27;;;;;;;7.90;6.97;;;20.60;1.00;;;;;;5098590;28;20472;-63
2023/09/07 07:16:54;;;;;;;8.90;6.60;;;20.90;1.00;;;;;;5117881;27;20463;-63
2023/09/07 07:19:22;;;;;;;7.57;6.60;;;21.10;99.90;;;;;;5116041;28;21110;-62
2023/09/07 07:21:49;;;;;;;10.43;6.40;;;21.40;1.00;;;;;;5107595;28;20472;-63
2023/09/07 07:24:18;;;;;;;7.93;6.53;;;21.50;99.90;;;;;;5098568;28;20936;-63
2023/09/07 07:26:46;;;;;;;8.53;6.20;;;21.80;99.90;;;;;;5098325;28;20468;-63
2023/09/07 07:29:14;;;;;;;9.40;6.60;;;21.90;99.90;;;;;;5097761;28;20557;-62
2023/09/07 07:31:41;;;;;;;9.30;6.33;;;22.20;99.90;;;;;;5099124;28;20534;-62
2023/09/07 07:34:08;;;;;;;7.40;6.70;;;22.40;99.90;;;;;;5117389;28;20462;-62
2023/09/07 07:36:35;;;;;;;7.97;6.00;;;22.80;99.90;;;;;;5117427;28;20455;-62
2023/09/07 07:39:04;;;;;;;7.77;6.30;;;23.00;99.90;;;;;;5111995;28;20475;-62
2023/09/07 07:41:32;;;;;;;9.37;5.80;;;23.40;1.00;;;;;;5077621;28;20805;-62
2023/09/07 07:43:59;;;;;;;10.20;6.53;;;23.70;1.00;;;;;;5087830;28;20579;-63
2023/09/07 07:46:26;;;;;;;10.23;7.43;;;23.90;99.90;;;;;;5084855;28;20534;-62
2023/09/07 07:48:54;;;;;;;7.00;5.37;;;24.10;1.00;;;;;;5097679;28;20956;-62
2023/09/07 07:51:21;;;;;;;7.73;6.43;;;24.30;99.90;;;;;;5097678;28;20551;-63
2023/09/07 07:53:48;;;;;;;10.37;6.33;;;24.40;1.00;;;;;;5097647;28;20924;-62
2023/09/07 07:56:19;;;;;;;9.50;6.37;;;24.60;99.90;;;;;;5096532;28;20484;-62
2023/09/07 07:58:48;;;;;;;6.63;5.50;;;25.00;99.90;;;;;;5096251;28;20456;-62
2023/09/07 08:01:16;;;;;;;10.80;6.37;;;25.20;99.90;;;;;;5096402;28;20854;-62
2023/09/07 08:03:44;;;;;;;9.10;6.20;;;25.50;49.60;;;;;;5097082;28;20587;-62
2023/09/07 08:06:11;;;;;;;6.97;5.87;;;25.60;1.00;;;;;;5097693;28;20457;-62
2023/09/07 08:08:40;;;;;;;8.83;5.80;;;25.50;99.90;;;;;;5097543;28;20882;-62
2023/09/07 08:11:07;;;;;;;5.80;5.27;;;25.80;1.00;;;;;;5096296;28;20583;-62
2023/09/07 08:13:35;;;;;;;5.70;5.20;;;26.20;1.00;;;;;;5095420;28;20509;-62
2023/09/07 08:16:03;;;;;;;5.67;5.07;;;26.50;99.90;;;;;;5094718;28;20456;-62
2023/09/07 08:18:32;;;;;;;5.90;5.30;;;26.70;99.90;;;;;;5094778;28;20496;-62
2023/09/07 08:20:59;;;;;;;5.60;5.10;;;26.80;99.90;;;;;;5094119;28;20555;-62
2023/09/07 08:23:26;;;;;;;6.30;5.70;;;27.10;15.70;;;;;;5094285;28;20468;-62
2023/09/07 08:25:54;;;;;;;5.40;5.00;;;27.30;99.90;;;;;;5095657;28;20527;-62
2023/09/07 08:28:22;;;;;;;5.13;4.73;;;27.40;99.30;;;;;;5095844;28;20460;-60
2023/09/07 08:30:53;;;;;;;6.00;5.37;;;27.60;90.20;;;;;;5096652;28;20471;-62
2023/09/07 08:33:28;;;;;;;6.27;5.57;;;27.70;9.10;;;;;;5095738;28;20460;-62
2023/09/07 08:35:56;;;;;;;6.13;5.53;;;27.80;1.00;;;;;;5096211;28;20460;-61
2023/09/07 08:38:27;;;;;;;6.10;5.60;;;27.90;1.00;;;;;;5100776;28;20540;-62
2023/09/07 08:40:56;;;;;;;9.00;5.73;;;28.10;1.00;;;;;;5117993;28;20460;-62
2023/09/07 08:43:23;;;;;;;6.37;5.30;;;28.20;1.00;;;;;;5117689;28;20459;-61
2023/09/07 08:45:59;;;;;;;6.30;5.70;;;28.40;1.00;;;;;;5117414;28;20495;-62
2023/09/07 08:48:29;;;;;;;7.17;5.43;;;28.50;1.00;;;;;;5117398;28;20463;-62
2023/09/07 08:50:57;;;;;;;6.33;5.77;;;28.60;1.00;;;;;;5116807;28;20463;-61
2023/09/07 08:53:25;;;;;;;6.03;5.17;;;28.70;1.00;;;;;;5115370;28;20817;-62
2023/09/07 08:55:53;;;;;;;10.27;5.53;;;28.80;99.90;;;;;;5114712;28;20459;-62
2023/09/07 08:58:20;;;;;;;5.17;4.77;;;29.00;52.50;;;;;;5115012;28;20459;-61
2023/09/07 09:00:49;;;;;;;5.97;5.47;;;29.30;1.00;;;;;;5115168;28;20550;-62
2023/09/07 09:03:16;;;;;;;5.30;4.83;;;29.50;1.00;;;;;;5115306;28;20459;-61
2023/09/07 09:05:47;;;;;;;5.00;4.60;;;29.70;1.00;;;;;;5115063;28;20497;-61
2023/09/07 09:08:20;;;;;;;5.03;4.63;;;29.90;1.00;;;;;;5116725;28;20456;-62
2023/09/07 09:10:47;;;;;;;7.00;5.93;;;29.90;1.00;;;;;;5117721;28;20796;-61
2023/09/07 09:13:14;;;;;;;5.83;5.27;;;30.00;1.00;;;;;;5116865;28;20555;-61
2023/09/07 09:15:41;;;;;;;6.17;5.57;;;30.10;1.00;;;;;;5117093;28;20891;-60
2023/09/07 09:18:13;;;;;;;5.37;4.80;;;30.10;1.00;;;;;;5117193;28;20546;-62
2023/09/07 09:20:40;;;;;;;5.60;5.00;;;30.20;1.00;;;;;;5116469;28;20883;-62
2023/09/07 09:23:09;;;;;;;7.23;4.70;;;30.40;1.00;;;;;;5116755;28;21131;-62
2023/09/07 09:25:36;;;;;;;5.60;5.20;;;30.60;1.00;;;;;;5117023;28;20914;-60
2023/09/07 09:28:06;;;;;;;5.73;5.20;;;30.60;1.00;;;;;;5116822;28;20461;-62
2023/09/07 09:30:33;;;;;;;5.63;5.23;;;30.70;55.50;;;;;;5118177;28;20880;-60
2023/09/07 09:33:00;;;;;;;5.10;4.70;;;30.70;99.90;;;;;;5120749;28;20456;-62
2023/09/07 09:35:28;;;;;;;5.37;4.97;;;30.80;99.90;;;;;;5120849;28;20473;-61
2023/09/07 09:37:56;;;;;;;5.03;4.63;;;30.90;99.90;;;;;;5120556;28;20465;-61
2023/09/07 09:40:25;;;;;;;5.90;4.90;;;31.00;99.90;;;;;;5118882;28;20493;-62
2023/09/07 09:42:55;;;;;;;5.33;4.83;;;31.30;55.10;;;;;;5120793;28;20851;-61
2023/09/07 09:45:22;;;;;;;5.40;5.00;;;31.40;1.00;;;;;;5119731;28;20581;-61
2023/09/07 09:47:51;;;;;;;5.77;5.20;;;31.40;1.00;;;;;;5119909;28;20459;-62
2023/09/07 09:50:20;;;;;;;10.60;5.63;;;31.40;1.00;;;;;;5119505;28;20508;-63
2023/09/07 09:52:49;;;;;;;6.63;5.13;;;31.70;99.90;;;;;;5120727;28;20465;-61
2023/09/07 09:55:17;;;;;;;5.33;5.00;;;31.90;99.90;;;;;;5119684;28;20461;-61
2023/09/07 09:57:45;;;;;;;5.97;5.37;;;32.00;99.90;;;;;;5105023;28;20749;-62
2023/09/07 10:00:25;;;;;;;5.20;4.80;;;32.10;1.00;;;;;;5098754;28;20456;-62
2023/09/07 10:03:02;;;;;;;5.30;4.90;;;32.30;99.90;;;;;;5099578;28;20451;-63
2023/09/07 10:05:30;;;;;;;5.60;5.20;;;32.40;99.90;;;;;;5098792;28;20492;-62
2023/09/07 10:08:05;;;;;;;4.53;4.20;;;32.60;1.00;;;;;;5099140;28;20626;-62
2023/09/07 10:10:36;;;;;;;6.47;4.87;;;32.60;99.90;;;;;;5099865;28;20892;-62
2023/09/07 10:13:08;;;;;;;5.23;4.83;;;32.60;1.00;;;;;;5099520;28;20456;-62
2023/09/07 10:15:36;;;;;;;7.00;5.37;;;33.00;99.90;;;;;;5098854;28;20546;-63
2023/09/07 10:18:08;;;;;;;4.90;4.50;;;33.10;1.00;;;;;;5099273;28;20460;-62
2023/09/07 10:20:56;;;;;;;4.80;4.40;;;33.10;1.00;;;;;;5099565;28;20459;-62
2023/09/07 10:23:24;;;;;;;5.80;5.30;;;33.30;99.90;;;;;;5099260;28;20460;-62
2023/09/07 10:25:52;;;;;;;5.47;5.07;;;33.20;1.00;;;;;;5099613;28;20955;-62
2023/09/07 10:28:23;;;;;;;5.07;4.67;;;33.10;99.90;;;;;;5099252;28;20456;-63
2023/09/07 10:31:04;;;;;;;5.73;5.33;;;33.00;99.90;;;;;;5099251;28;20550;-62
2023/09/07 10:33:32;;;;;;;4.70;4.30;;;33.00;1.00;;;;;;5098936;28;20529;-61
2023/09/07 10:35:59;;;;;;;6.30;5.20;;;33.30;99.90;;;;;;5099080;28;20964;-61
2023/09/07 10:38:27;;;;;;;6.20;5.27;;;33.40;99.90;;;;;;5101527;28;20462;-63
2023/09/07 10:41:01;;;;;;;4.90;4.50;;;33.40;99.90;;;;;;5119165;28;20461;-62
2023/09/07 10:43:31;;;;;;;4.60;4.30;;;33.30;99.90;;;;;;5118376;28;20457;-62
2023/09/07 10:46:00;;;;;;;4.53;4.23;;;33.40;99.90;;;;;;5102493;28;20530;-62
2023/09/07 10:48:29;;;;;;;5.47;4.97;;;33.40;99.90;;;;;;5114486;28;20455;-62
2023/09/07 10:50:57;;;;;;;5.00;4.60;;;33.10;99.90;;;;;;5117642;28;20528;-62
2023/09/07 10:53:29;;;;;;;5.37;4.87;;;33.20;99.90;;;;;;5118670;28;20503;-61
2023/09/07 10:55:59;;;;;;;5.00;4.70;;;33.60;99.90;;;;;;5118919;28;20496;-63
2023/09/07 10:58:29;;;;;;;6.50;5.20;;;33.60;99.90;;;;;;5118463;28;20983;-59
2023/09/07 11:00:56;;;;;;;6.10;5.17;;;33.70;99.90;;;;;;5117991;28;20457;-59
2023/09/07 11:03:25;;;;;;;6.50;5.00;;;33.90;99.90;;;;;;5117953;28;20818;-59
2023/09/07 11:05:55;;;;;;;6.87;4.60;;;34.20;99.90;;;;;;5117158;28;20839;-60
2023/09/07 11:08:22;;;;;;;6.23;5.63;;;34.40;99.90;;;;;;5117208;28;20458;-59
2023/09/07 11:10:51;;;;;;;6.07;4.73;;;34.40;99.90;;;;;;5117310;28;20612;-59
2023/09/07 11:13:19;;;;;;;5.40;5.00;;;34.40;99.90;;;;;;5117059;28;20462;-60
2023/09/07 11:15:47;;;;;;;5.53;5.13;;;34.20;99.90;;;;;;5116592;28;20486;-60
2023/09/07 11:18:14;;;;;;;8.10;4.93;;;34.50;99.90;;;;;;5117076;28;20455;-60
2023/09/07 11:20:42;;;;;;;5.23;4.70;;;34.50;99.90;;;;;;5116719;28;20455;-59
2023/09/07 11:23:10;;;;;;;4.70;4.40;;;34.50;99.90;;;;;;5117398;28;20558;-60
2023/09/07 11:25:38;;;;;;;5.17;4.63;;;34.60;99.90;;;;;;5116711;28;20487;-59
2023/09/07 11:28:06;;;;;;;7.13;5.37;;;34.80;99.90;;;;;;5117002;28;20459;-60
2023/09/07 11:30:34;;;;;;;7.40;4.80;;;34.80;99.90;;;;;;5116821;28;20455;-59
2023/09/07 11:33:05;;;;;;;5.70;5.30;;;35.00;99.90;;;;;;5107847;28;20547;-59
2023/09/07 11:35:32;;;;;;;5.00;4.60;;;34.90;99.90;;;;;;5101993;28;20558;-59
2023/09/07 11:38:01;;;;;;;5.80;5.30;;;35.00;99.90;;;;;;5110793;28;20244;-60
2023/09/07 11:40:28;;;;;;;4.97;4.47;;;34.80;99.90;;;;;;5117924;28;20482;-60
2023/09/07 11:42:56;;;;;;;6.50;6.00;;;34.80;99.90;;;;;;5118165;28;20429;-60
2023/09/07 11:45:23;;;;;;;6.37;5.73;;;35.00;97.60;;;;;;5118024;28;20283;-59
2023/09/07 11:47:50;;;;;;;5.60;5.10;;;35.00;1.00;;;;;;5103391;28;20456;-60
2023/09/07 11:50:20;;;;;;;6.93;5.72;;;35.10;1.00;;;;;;5097701;28;20205;-59
2023/09/07 11:52:47;;;;;;;5.93;5.43;;;35.30;1.00;;;;;;5097100;28;20202;-60
2023/09/07 11:55:15;;;;;;;5.93;5.53;;;35.50;99.90;;;;;;5096559;28;20535;-60
2023/09/07 11:57:43;;;;;;;5.63;4.88;;;35.50;1.00;;;;;;5096600;28;20305;-59
2023/09/07 12:00:11;;;;;;;6.00;5.57;;;35.60;1.00;;;;;;5097158;28;20679;-60
2023/09/07 12:02:40;;;;;;;5.57;5.18;;;35.50;99.90;;;;;;5097524;28;20302;-60
2023/09/07 12:05:09;;;;;;;6.07;5.68;;;35.60;1.00;;;;;;5097686;28;20229;-60
2023/09/07 12:07:38;;;;;;;6.70;4.75;;;35.80;99.90;;;;;;5097383;28;20213;-60
2023/09/07 12:10:09;;;;;;;5.50;5.10;;;35.80;34.50;;;;;;5093748;28;20528;-60
2023/09/07 12:12:37;;;;;;;6.03;5.63;;;35.90;1.00;;;;;;5094312;28;20233;-60
2023/09/07 12:15:05;;;;;;;5.07;4.70;;;36.00;99.90;;;;;;5094605;28;20244;-60
2023/09/07 12:17:33;;;;;;;5.63;5.25;;;35.90;1.00;;;;;;5093118;28;20220;-60
2023/09/07 12:20:00;;;;;;;5.75;5.28;;;35.70;1.00;;;;;;5092220;28;20487;-60
2023/09/07 12:22:28;;;;;;;5.60;5.10;;;36.10;99.90;;;;;;5093327;28;20205;-58
2023/09/07 12:24:57;;;;;;;5.63;5.20;;;36.30;22.80;;;;;;5093323;28;20232;-57
2023/09/07 12:27:24;;;;;;;5.65;5.25;;;36.30;99.90;;;;;;5094415;28;20232;-59
2023/09/07 12:29:51;;;;;;;8.60;5.97;;;36.50;1.00;;;;;;5094664;28;20251;-58
2023/09/07 12:32:18;;;;;;;6.93;6.22;;;36.60;99.90;;;;;;5095379;28;20197;-57
2023/09/07 12:34:46;;;;;;;7.72;5.45;;;36.70;99.90;;;;;;5095963;28;20634;-58
2023/09/07 12:37:13;;;;;;;5.93;5.53;;;36.70;1.00;;;;;;5095576;28;20206;-58
2023/09/07 12:39:40;;;;;;;7.07;5.28;;;36.70;99.90;;;;;;5096216;28;20265;-57
2023/09/07 12:42:09;;;;;;;6.00;5.50;;;36.60;99.90;;;;;;5095948;28;20217;-58
2023/09/07 12:44:36;;;;;;;6.88;4.80;;;36.20;1.00;;;;;;5096093;28;20610;-57
2023/09/07 12:47:03;;;;;;;5.22;4.88;;;36.50;99.90;;;;;;5096917;28;20212;-58
2023/09/07 12:49:30;;;;;;;5.97;5.47;;;36.40;1.00;;;;;;5096386;28;20206;-57
2023/09/07 12:51:57;;;;;;;5.72;5.32;;;36.60;1.00;;;;;;5094950;28;20638;-58
2023/09/07 12:54:25;;;;;;;6.00;5.50;;;36.60;29.70;;;;;;5096638;28;20241;-57
2023/09/07 12:56:52;;;;;;;6.25;5.65;;;36.40;46.90;;;;;;5096648;28;20589;-58
2023/09/07 12:59:21;;;;;;;6.22;5.75;;;36.40;1.00;;;;;;5096104;28;20205;-57